createdAt,value
2023-07-03T00:00:16.072Z,100394.66
2023-07-03T00:03:03.563Z,100389.81
2023-07-03T00:05:50.497Z,100393.38
2023-07-03T00:08:37.027Z,100392.09
2023-07-03T00:11:23.415Z,100395.91
2023-07-03T00:14:09.403Z,100385.25
2023-07-03T00:16:57.417Z,100384.56
2023-07-03T00:19:43.731Z,100382.44
2023-07-03T00:22:30.235Z,100379.25
2023-07-03T00:25:16.605Z,100378.84
2023-07-03T00:28:02.798Z,100382.31
2023-07-03T00:30:49.727Z,100376.28
2023-07-03T00:33:36.993Z,100373.16
2023-07-03T00:36:23.357Z,100368.84
2023-07-03T00:39:09.576Z,100376.50
2023-07-03T00:41:55.842Z,100377.56
2023-07-03T00:44:42.041Z,100373.91
2023-07-03T00:47:28.603Z,100373.34
2023-07-03T00:50:16.886Z,100362.88
2023-07-03T00:53:06.275Z,100374.88
2023-07-03T00:55:52.636Z,100368.22
2023-07-03T00:58:38.827Z,100359.69
2023-07-03T01:01:28.225Z,100357.78
2023-07-03T01:04:16.740Z,100364.94
2023-07-03T01:07:08.261Z,100361.75
2023-07-03T01:09:57.158Z,100362.63
2023-07-03T01:12:45.762Z,100363.56
2023-07-03T01:15:35.329Z,100362.75
2023-07-03T01:18:22.006Z,100369.56
2023-07-03T01:21:11.608Z,100365.56
2023-07-03T01:24:01.190Z,100369.56
2023-07-03T01:26:48.650Z,100362.22
2023-07-03T01:29:41.072Z,100355.34
2023-07-03T01:32:30.389Z,100347.78
2023-07-03T01:35:17.583Z,100352.00
2023-07-03T01:38:04.088Z,100345.44
2023-07-03T01:40:50.397Z,100343.56
2023-07-03T01:43:38.366Z,100342.38
2023-07-03T01:46:24.319Z,100340.88
2023-07-03T01:49:13.523Z,100338.69
2023-07-03T01:52:06.247Z,100342.13
2023-07-03T01:54:57.437Z,100348.84
2023-07-03T01:57:54.376Z,100352.75
2023-07-03T02:00:47.827Z,100347.53
2023-07-03T02:03:38.371Z,100333.44
2023-07-03T02:06:27.377Z,100337.19
2023-07-03T02:09:13.973Z,100344.00
2023-07-03T02:12:07.006Z,100341.09
2023-07-03T02:14:54.342Z,100345.44
2023-07-03T02:17:41.703Z,100345.31
2023-07-03T02:20:27.856Z,100350.47
2023-07-03T02:23:16.804Z,100347.22
2023-07-03T02:26:03.116Z,100350.94
2023-07-03T02:28:49.279Z,100347.66
2023-07-03T02:31:35.562Z,100342.84
2023-07-03T02:34:23.112Z,100350.78
2023-07-03T02:37:10.741Z,100343.50
2023-07-03T02:39:58.663Z,100338.13
2023-07-03T02:42:46.549Z,100340.50
2023-07-03T02:45:35.615Z,100337.91
2023-07-03T02:48:21.636Z,100337.06
2023-07-03T02:51:09.926Z,100330.81
2023-07-03T02:53:57.017Z,100328.22
2023-07-03T02:56:43.052Z,100332.31
2023-07-03T02:59:30.617Z,100329.09
2023-07-03T03:02:17.469Z,100335.94
2023-07-03T03:05:03.866Z,100327.78
2023-07-03T03:07:51.378Z,100337.88
2023-07-03T03:10:37.316Z,100336.25
2023-07-03T03:13:23.788Z,100333.66
2023-07-03T03:16:12.546Z,100331.16
2023-07-03T03:18:59.095Z,100327.69
2023-07-03T03:21:45.578Z,100329.69
2023-07-03T03:24:32.901Z,100330.03
2023-07-03T03:27:19.120Z,100328.50
2023-07-03T03:30:05.510Z,100323.78
2023-07-03T03:32:55.639Z,100329.59
2023-07-03T03:35:42.145Z,100328.44
2023-07-03T03:38:28.584Z,100318.47
2023-07-03T03:41:16.293Z,100319.06
2023-07-03T03:44:04.689Z,100323.69
2023-07-03T03:46:53.783Z,100329.00
2023-07-03T03:49:40.556Z,100330.25
2023-07-03T03:52:27.108Z,100325.44
2023-07-03T03:55:13.701Z,100321.94
2023-07-03T03:58:01.007Z,100324.34
2023-07-03T04:00:47.697Z,100321.56
2023-07-03T04:03:33.888Z,100326.28
2023-07-03T04:06:20.572Z,100320.72
2023-07-03T04:09:06.751Z,100325.94
2023-07-03T04:11:53.012Z,100324.97
2023-07-03T04:14:43.955Z,100320.28
2023-07-03T04:17:29.842Z,100312.75
2023-07-03T04:20:18.804Z,100310.16
2023-07-03T04:23:04.754Z,100317.69
2023-07-03T04:25:52.724Z,100316.41
2023-07-03T04:28:39.085Z,100298.03
2023-07-03T04:31:26.606Z,100294.41
2023-07-03T04:34:12.863Z,100307.00
2023-07-03T04:36:59.117Z,100300.88
2023-07-03T04:39:48.037Z,100306.16
2023-07-03T04:42:34.112Z,100315.00
2023-07-03T04:45:22.485Z,100318.50
2023-07-03T04:48:10.216Z,100320.88
2023-07-03T04:50:56.779Z,100327.09
2023-07-03T04:53:43.221Z,100332.31
2023-07-03T04:56:30.174Z,100326.19
2023-07-03T04:59:16.586Z,100332.03
2023-07-03T05:02:03.000Z,100333.44
2023-07-03T05:04:50.451Z,100325.34
2023-07-03T05:07:36.762Z,100334.53
2023-07-03T05:10:23.993Z,100345.81
2023-07-03T05:13:10.053Z,100352.16
2023-07-03T05:15:56.896Z,100364.44
2023-07-03T05:18:43.197Z,100367.34
2023-07-03T05:21:30.612Z,100365.72
2023-07-03T05:24:16.709Z,100368.78
2023-07-03T05:27:02.799Z,100362.19
2023-07-03T05:29:48.921Z,100372.53
2023-07-03T05:32:35.681Z,100367.59
2023-07-03T05:35:21.846Z,100366.78
2023-07-03T05:38:09.057Z,100366.75
2023-07-03T05:40:55.804Z,100359.84
2023-07-03T05:43:41.958Z,100347.00
2023-07-03T05:46:27.868Z,100361.47
2023-07-03T05:49:13.710Z,100363.94
2023-07-03T05:51:59.758Z,100371.34
2023-07-03T05:54:47.486Z,100382.06
2023-07-03T05:57:33.626Z,100378.91
2023-07-03T06:00:20.032Z,100395.16
2023-07-03T06:03:06.410Z,100391.03
2023-07-03T06:05:53.075Z,100387.63
2023-07-03T06:08:39.412Z,100389.94
2023-07-03T06:11:26.573Z,100393.28
2023-07-03T06:14:16.547Z,100401.13
2023-07-03T06:17:03.062Z,100406.88
2023-07-03T06:19:48.965Z,100407.16
2023-07-03T06:22:35.062Z,100397.22
2023-07-03T06:25:20.866Z,100406.06
2023-07-03T06:28:08.745Z,100414.31
2023-07-03T06:30:55.323Z,100418.56
2023-07-03T06:33:41.449Z,100415.13
2023-07-03T06:36:27.516Z,100415.38
2023-07-03T06:39:13.804Z,100416.88
2023-07-03T06:41:59.725Z,100417.25
2023-07-03T06:44:47.626Z,100413.84
2023-07-03T06:47:33.754Z,100416.75
2023-07-03T06:50:19.954Z,100429.59
2023-07-03T06:53:06.205Z,100428.16
2023-07-03T06:55:59.133Z,100430.28
2023-07-03T06:58:45.721Z,100424.84
2023-07-03T07:01:33.424Z,100432.72
2023-07-03T07:04:20.004Z,100432.72
2023-07-03T07:07:06.435Z,100432.16
2023-07-03T07:09:52.331Z,100433.16
2023-07-03T07:12:38.415Z,100430.16
2023-07-03T07:15:24.604Z,100429.13
2023-07-03T07:18:12.261Z,100434.28
2023-07-03T07:20:58.333Z,100440.47
2023-07-03T07:23:44.483Z,100429.22
2023-07-03T07:26:34.521Z,100427.84
2023-07-03T07:29:20.137Z,100433.97
2023-07-03T07:32:06.935Z,100431.09
2023-07-03T07:34:54.604Z,100430.44
2023-07-03T07:37:41.006Z,100436.94
2023-07-03T07:40:26.993Z,100428.28
2023-07-03T07:43:14.225Z,100438.31
2023-07-03T07:46:00.277Z,100437.56
2023-07-03T07:48:48.893Z,100441.00
2023-07-03T07:51:36.465Z,100444.78
2023-07-03T07:54:22.382Z,100442.53
2023-07-03T07:57:08.638Z,100449.09
2023-07-03T07:59:54.573Z,100446.94
2023-07-03T08:02:40.588Z,100447.25
2023-07-03T08:05:27.030Z,100449.25
2023-07-03T08:08:14.503Z,100458.72
2023-07-03T08:11:01.860Z,100455.28
2023-07-03T08:13:48.065Z,100456.28
2023-07-03T08:16:34.383Z,100463.88
2023-07-03T08:19:20.409Z,100455.81
2023-07-03T08:22:06.989Z,100451.53
2023-07-03T08:24:54.414Z,100461.66
2023-07-03T08:27:40.366Z,100461.19
2023-07-03T08:30:26.706Z,100458.25
2023-07-03T08:33:13.888Z,100456.25
2023-07-03T08:38:50.079Z,100473.94
2023-07-03T08:41:42.237Z,100477.03
2023-07-03T08:44:28.219Z,100469.41
2023-07-03T08:47:17.648Z,100470.16
2023-07-03T08:50:07.234Z,100470.47
2023-07-03T08:52:58.305Z,100471.03
2023-07-03T08:55:47.826Z,100467.47
2023-07-03T08:58:35.379Z,100472.41
2023-07-03T09:01:26.455Z,100474.81
2023-07-03T09:04:15.776Z,100480.19
2023-07-03T09:07:03.572Z,100471.34
2023-07-03T09:09:52.619Z,100483.47
2023-07-03T09:12:41.353Z,100478.41
2023-07-03T09:15:31.560Z,100469.34
2023-07-03T09:18:19.773Z,100467.34
2023-07-03T09:21:05.850Z,100472.41
2023-07-03T09:23:54.898Z,100471.22
2023-07-03T09:26:45.530Z,100467.84
2023-07-03T09:29:34.009Z,100474.66
2023-07-03T09:32:27.605Z,100468.75
2023-07-03T09:35:16.853Z,100472.44
2023-07-03T09:38:06.103Z,100474.63
2023-07-03T09:40:56.969Z,100473.06
2023-07-03T09:43:45.587Z,100473.44
2023-07-03T09:46:31.707Z,100480.59
2023-07-03T09:49:24.050Z,100474.53
2023-07-03T09:52:10.268Z,100476.56
2023-07-03T09:55:01.126Z,100476.34
2023-07-03T09:57:47.157Z,100481.47
2023-07-03T10:00:33.122Z,100485.09
2023-07-03T10:12:03.472Z,100499.25
2023-07-03T10:14:54.029Z,100515.50
2023-07-03T10:17:43.041Z,100515.63
2023-07-03T10:20:33.636Z,100523.91
2023-07-03T10:23:24.227Z,100525.88
2023-07-03T10:26:13.241Z,100524.44
2023-07-03T10:29:09.957Z,100514.31
2023-07-03T10:31:59.444Z,100518.06
2023-07-03T10:34:55.405Z,100512.03
2023-07-03T10:37:46.829Z,100510.53
2023-07-03T10:40:38.972Z,100512.72
2023-07-03T10:43:26.539Z,100514.25
2023-07-03T10:46:19.825Z,100511.69
2023-07-03T10:49:08.350Z,100512.59
2023-07-03T10:52:02.465Z,100507.13
2023-07-03T10:54:56.806Z,100512.69
2023-07-03T10:57:50.958Z,100508.63
2023-07-03T11:00:43.518Z,100515.00
2023-07-03T11:03:35.093Z,100503.66
2023-07-03T11:06:26.213Z,100508.16
2023-07-03T11:09:15.561Z,100502.28
2023-07-03T11:12:07.216Z,100506.75
2023-07-03T11:15:08.532Z,100500.22
2023-07-03T11:23:50.240Z,100508.63
2023-07-03T11:29:29.374Z,100507.47
2023-07-03T11:32:17.594Z,100511.28
2023-07-03T11:44:19.522Z,100502.72
2023-07-03T11:47:07.292Z,100495.00
2023-07-03T11:49:59.915Z,100495.06
2023-07-03T11:52:49.001Z,100499.09
2023-07-03T11:55:37.522Z,100495.06
2023-07-03T11:58:26.613Z,100492.50
2023-07-03T12:01:31.902Z,100488.97
2023-07-03T12:04:51.406Z,100490.91
2023-07-03T12:07:51.784Z,100496.31
2023-07-03T12:10:47.889Z,100496.28
2023-07-03T12:13:52.284Z,100500.09
2023-07-03T12:16:45.777Z,100505.63
2023-07-03T12:19:32.950Z,100495.75
2023-07-03T12:22:21.441Z,100494.09
2023-07-03T12:25:10.855Z,100497.88
2023-07-03T12:28:09.411Z,100499.97
2023-07-03T12:31:10.325Z,100506.06
2023-07-03T12:33:58.974Z,100501.34
2023-07-03T12:36:50.534Z,100503.44
2023-07-03T12:39:36.771Z,100504.41
2023-07-03T12:42:26.114Z,100505.19
2023-07-03T12:45:15.687Z,100502.34
2023-07-03T12:48:03.242Z,100507.53
2023-07-03T12:50:50.874Z,100510.00
2023-07-03T12:53:38.595Z,100500.09
2023-07-03T12:56:24.497Z,100502.94
2023-07-03T12:59:13.743Z,100505.66
2023-07-03T13:02:00.235Z,100514.59
2023-07-03T13:04:46.544Z,100518.44
2023-07-03T13:07:32.960Z,100526.03
2023-07-03T13:10:20.436Z,100522.19
2023-07-03T13:13:09.263Z,100521.50
2023-07-03T13:15:56.674Z,100510.06
2023-07-03T13:18:59.531Z,100523.94
2023-07-03T13:21:51.755Z,100525.56
2023-07-03T13:24:44.979Z,100525.44
2023-07-03T13:27:31.428Z,100538.03
2023-07-03T13:30:21.107Z,100534.41
2023-07-03T13:33:10.292Z,100526.22
2023-07-03T13:35:56.943Z,100531.19
2023-07-03T13:38:42.865Z,100538.13
2023-07-03T13:41:28.748Z,100538.63
2023-07-03T13:44:16.505Z,100528.41
2023-07-03T13:47:02.597Z,100534.00
2023-07-03T13:49:49.687Z,100535.66
2023-07-03T13:52:38.058Z,100531.88
2023-07-03T13:55:24.254Z,100534.06
2023-07-03T13:58:10.410Z,100534.53
2023-07-03T14:00:56.684Z,100534.03
2023-07-03T14:03:45.443Z,100536.63
2023-07-03T14:06:34.190Z,100526.84
2023-07-03T14:09:21.114Z,100539.69
2023-07-03T14:12:07.874Z,100543.59
2023-07-03T14:14:54.189Z,100542.00
2023-07-03T14:17:40.004Z,100542.59
2023-07-03T14:20:26.383Z,100541.94
2023-07-03T14:23:13.634Z,100552.56
2023-07-03T14:25:59.960Z,100548.44
2023-07-03T14:28:47.315Z,100554.44
2023-07-03T14:31:33.993Z,100552.47
2023-07-03T14:34:20.145Z,100550.84
2023-07-03T14:37:06.483Z,100561.69
2023-07-03T14:39:53.707Z,100558.25
2023-07-03T14:42:39.912Z,100563.16
2023-07-03T14:45:26.098Z,100566.25
2023-07-03T14:48:12.358Z,100561.75
2023-07-03T14:50:59.985Z,100556.47
2023-07-03T14:53:46.213Z,100559.25
2023-07-03T14:56:33.367Z,100548.13
2023-07-03T14:59:19.614Z,100547.97
2023-07-03T15:02:06.212Z,100537.09
2023-07-03T15:04:52.246Z,100533.38
2023-07-03T15:07:38.087Z,100533.41
2023-07-03T15:10:24.205Z,100530.47
2023-07-03T15:13:11.427Z,100528.25
2023-07-03T15:15:57.748Z,100534.56
2023-07-03T15:18:43.944Z,100535.34
2023-07-03T15:21:29.892Z,100527.44
2023-07-03T15:24:18.291Z,100531.03
2023-07-03T15:27:06.132Z,100525.66
2023-07-03T15:29:54.030Z,100520.91
2023-07-03T15:32:40.161Z,100524.69
2023-07-03T15:35:26.795Z,100519.66
2023-07-03T15:38:12.875Z,100516.75
2023-07-03T15:41:00.368Z,100518.34
2023-07-03T15:43:48.722Z,100515.94
2023-07-03T15:46:36.544Z,100514.59
2023-07-03T15:49:22.531Z,100513.97
2023-07-03T15:52:09.274Z,100514.59
2023-07-03T15:54:55.770Z,100518.81
2023-07-03T15:57:41.913Z,100518.59
2023-07-03T16:00:28.025Z,100516.22
2023-07-03T16:03:15.323Z,100520.06
2023-07-03T16:06:03.299Z,100521.72
2023-07-03T16:08:51.362Z,100526.94
2023-07-03T16:11:38.279Z,100520.94
2023-07-03T16:14:24.847Z,100532.44
2023-07-03T16:17:11.022Z,100531.00
2023-07-03T16:20:09.675Z,100527.50
2023-07-03T16:22:57.032Z,100532.44
2023-07-03T16:25:50.250Z,100541.06
2023-07-03T16:28:37.868Z,100533.06
2023-07-03T16:31:25.117Z,100521.56
2023-07-03T16:34:11.765Z,100524.25
2023-07-03T16:36:59.115Z,100519.28
2023-07-03T16:39:45.341Z,100521.06
2023-07-03T16:42:31.509Z,100530.88
2023-07-03T16:45:17.970Z,100540.00
2023-07-03T16:48:04.542Z,100532.69
2023-07-03T16:50:54.764Z,100536.44
2023-07-03T16:53:43.309Z,100544.59
2023-07-03T16:56:29.820Z,100538.56
2023-07-03T16:59:16.393Z,100529.13
2023-07-03T17:02:02.217Z,100534.69
2023-07-03T17:04:48.248Z,100528.06
2023-07-03T17:07:34.600Z,100537.94
2023-07-03T17:10:21.798Z,100525.16
2023-07-03T17:13:08.207Z,100533.06
2023-07-03T17:15:54.724Z,100530.63
2023-07-03T17:18:41.241Z,100534.44
2023-07-03T17:21:27.595Z,100523.66
2023-07-03T17:24:13.867Z,100523.66
2023-07-03T17:27:01.203Z,100519.28
2023-07-03T17:29:47.521Z,100525.41
2023-07-03T17:32:34.159Z,100523.03
2023-07-03T17:35:20.598Z,100530.00
2023-07-03T17:38:07.257Z,100515.97
2023-07-03T17:40:53.239Z,100516.22
2023-07-03T17:43:40.654Z,100522.78
2023-07-03T17:46:27.125Z,100521.75
2023-07-03T17:49:13.651Z,100518.47
2023-07-03T17:51:59.770Z,100513.38
2023-07-03T17:54:45.917Z,100512.63
2023-07-03T17:57:32.541Z,100519.56
2023-07-03T18:00:20.166Z,100520.84
2023-07-03T18:03:06.333Z,100518.81
2023-07-03T18:05:55.617Z,100506.31
2023-07-03T18:08:41.788Z,100510.84
2023-07-03T18:11:28.300Z,100514.88
2023-07-03T18:14:14.519Z,100513.72
2023-07-03T18:17:02.485Z,100506.03
2023-07-03T18:19:48.456Z,100503.56
2023-07-03T18:22:34.511Z,100497.53
2023-07-03T18:25:20.943Z,100496.69
2023-07-03T18:28:07.778Z,100499.41
2023-07-03T18:30:58.403Z,100497.88
2023-07-03T18:33:47.389Z,100493.59
2023-07-03T18:36:33.775Z,100491.97
2023-07-03T18:39:20.100Z,100495.25
2023-07-03T18:42:06.811Z,100496.63
2023-07-03T18:44:53.210Z,100488.06
2023-07-03T18:47:40.454Z,100487.03
2023-07-03T18:50:28.325Z,100489.84
2023-07-03T18:53:14.449Z,100483.25
2023-07-03T18:56:00.635Z,100483.13
2023-07-03T18:58:47.077Z,100483.00
2023-07-03T19:01:35.313Z,100489.13
2023-07-03T19:04:22.080Z,100486.28
2023-07-03T19:07:09.869Z,100483.44
2023-07-03T19:10:08.150Z,100485.09
2023-07-03T19:13:03.089Z,100480.56
2023-07-03T19:15:49.102Z,100481.59
2023-07-03T19:18:35.772Z,100477.19
2023-07-03T19:21:21.859Z,100474.38
2023-07-03T19:24:09.233Z,100470.91
2023-07-03T19:26:55.491Z,100472.56
2023-07-03T19:29:41.522Z,100470.91
2023-07-03T19:32:28.438Z,100480.38
2023-07-03T19:35:14.777Z,100476.34
2023-07-03T19:38:00.674Z,100482.09
2023-07-03T19:40:47.905Z,100482.09
2023-07-03T19:43:33.769Z,100486.94
2023-07-03T19:46:19.848Z,100486.53
2023-07-03T19:49:06.216Z,100483.03
2023-07-03T19:51:52.591Z,100492.06
2023-07-03T19:54:38.824Z,100487.97
2023-07-03T19:57:26.010Z,100481.84
2023-07-03T20:00:12.621Z,100487.63
2023-07-03T20:02:58.996Z,100483.72
2023-07-03T20:05:46.391Z,100472.75
2023-07-03T20:08:33.253Z,100480.56
2023-07-03T20:11:20.513Z,100484.09
2023-07-03T20:14:07.881Z,100480.00
2023-07-03T20:16:53.916Z,100476.41
2023-07-03T20:19:40.385Z,100468.81
2023-07-03T20:22:26.276Z,100466.72
2023-07-03T20:25:12.488Z,100472.38
2023-07-03T20:27:58.341Z,100458.56
2023-07-03T20:30:48.976Z,100457.38
2023-07-03T20:33:35.320Z,100452.00
2023-07-03T20:36:21.619Z,100452.47
2023-07-03T20:39:08.274Z,100453.63
2023-07-03T20:41:54.424Z,100451.94
2023-07-03T20:44:42.397Z,100449.59
2023-07-03T20:47:31.752Z,100451.50
2023-07-03T20:50:18.141Z,100455.03
2023-07-03T20:53:11.051Z,100453.13
2023-07-03T20:56:08.915Z,100449.69
2023-07-03T20:58:56.473Z,100446.44
2023-07-03T21:01:43.874Z,100447.47
2023-07-03T21:04:31.372Z,100442.28
2023-07-03T21:07:17.435Z,100442.44
2023-07-03T21:10:03.995Z,100438.63
2023-07-03T21:12:50.125Z,100439.25
2023-07-03T21:15:36.044Z,100432.28
2023-07-03T21:18:21.960Z,100430.53
2023-07-03T21:21:14.072Z,100430.88
2023-07-03T21:24:00.789Z,100429.31
2023-07-03T21:26:46.735Z,100428.28
2023-07-03T21:29:33.064Z,100426.63
2023-07-03T21:32:18.972Z,100418.41
2023-07-03T21:35:05.978Z,100419.69
2023-07-03T21:37:53.323Z,100412.66
2023-07-03T21:40:39.220Z,100411.59
2023-07-03T21:43:25.905Z,100412.16
2023-07-03T21:46:14.434Z,100405.34
2023-07-03T21:49:00.913Z,100406.16
2023-07-03T21:51:47.498Z,100402.88
2023-07-03T21:54:34.699Z,100406.41
2023-07-03T21:57:20.559Z,100400.66
2023-07-03T22:00:14.002Z,100400.31
2023-07-03T22:03:03.145Z,100393.59
2023-07-03T22:05:49.611Z,100394.91
2023-07-03T22:08:35.823Z,100392.75
2023-07-03T22:11:23.373Z,100392.75
2023-07-03T22:14:10.306Z,100389.59
2023-07-03T22:16:57.316Z,100381.84
2023-07-03T22:19:44.392Z,100383.13
2023-07-03T22:22:30.817Z,100368.63
2023-07-03T22:25:17.156Z,100370.28
2023-07-03T22:28:04.706Z,100372.06
2023-07-03T22:30:50.881Z,100373.13
2023-07-03T22:33:37.473Z,100373.38
2023-07-03T22:36:23.756Z,100375.25
2023-07-03T22:39:10.035Z,100367.34
2023-07-03T22:41:56.148Z,100367.16
2023-07-03T22:44:43.362Z,100372.66
2023-07-03T22:47:30.450Z,100369.13
2023-07-03T22:50:16.956Z,100378.78
2023-07-03T22:53:03.129Z,100378.06
2023-07-03T22:55:49.221Z,100381.94
2023-07-03T22:58:35.679Z,100379.09
2023-07-03T23:01:23.471Z,100369.31
2023-07-03T23:04:09.484Z,100379.94
2023-07-03T23:06:55.558Z,100374.13
2023-07-03T23:09:43.998Z,100374.84
2023-07-03T23:12:30.631Z,100373.91
2023-07-03T23:15:16.773Z,100372.25
2023-07-03T23:18:04.448Z,100372.69
2023-07-03T23:20:55.166Z,100381.78
2023-07-03T23:23:41.397Z,100371.78
2023-07-03T23:26:27.673Z,100376.22
2023-07-03T23:29:13.588Z,100380.56
2023-07-03T23:31:59.490Z,100378.44
2023-07-03T23:34:48.384Z,100380.00
2023-07-03T23:37:34.567Z,100389.53
2023-07-03T23:40:20.452Z,100389.19
2023-07-03T23:43:06.627Z,100382.47
2023-07-03T23:45:53.772Z,100392.78
2023-07-03T23:48:41.448Z,100384.09
2023-07-03T23:51:30.325Z,100394.34
2023-07-03T23:54:16.470Z,100392.47
2023-07-03T23:57:02.953Z,100397.88
2023-07-03T23:59:49.356Z,100396.56
